createdAt,value
2022-08-03T00:01:23.490Z,100446.91
2022-08-03T00:03:51.254Z,100447.94
2022-08-03T00:06:17.894Z,100444.38
2022-08-03T00:08:44.364Z,100446.25
2022-08-03T00:11:10.870Z,100446.25
2022-08-03T00:13:37.582Z,100441.97
2022-08-03T00:16:04.451Z,100439.41
2022-08-03T00:18:31.048Z,100436.03
2022-08-03T00:20:58.852Z,100445.13
2022-08-03T00:23:25.368Z,100440.03
2022-08-03T00:25:51.960Z,100443.56
2022-08-03T00:28:18.488Z,100440.16
2022-08-03T00:30:45.081Z,100439.31
2022-08-03T00:33:11.666Z,100435.78
2022-08-03T00:35:50.755Z,100435.78
2022-08-03T00:38:19.756Z,100426.84
2022-08-03T00:40:46.728Z,100432.25
2022-08-03T00:43:13.269Z,100425.16
2022-08-03T00:45:41.277Z,100429.84
2022-08-03T00:48:23.301Z,100428.16
2022-08-03T00:50:56.712Z,100441.69
2022-08-03T00:53:25.405Z,100426.72
2022-08-03T00:55:52.034Z,100432.94
2022-08-03T00:58:18.547Z,100433.91
2022-08-03T01:00:44.984Z,100420.59
2022-08-03T01:03:11.632Z,100419.75
2022-08-03T01:05:53.324Z,100421.63
2022-08-03T01:08:35.301Z,100415.22
2022-08-03T01:11:10.045Z,100410.97
2022-08-03T01:14:04.578Z,100411.81
2022-08-03T01:16:36.761Z,100410.13
2022-08-03T01:19:28.296Z,100407.72
2022-08-03T01:22:04.412Z,100410.56
2022-08-03T01:24:42.576Z,100409.84
2022-08-03T01:27:14.741Z,100402.78
2022-08-03T01:29:52.445Z,100410.88
2022-08-03T01:32:59.860Z,100410.00
2022-08-03T01:35:12.547Z,100408.28
2022-08-03T01:37:43.488Z,100408.47
2022-08-03T01:40:12.619Z,100408.63
2022-08-03T01:42:40.931Z,100401.38
2022-08-03T01:45:10.809Z,100391.59
2022-08-03T01:47:38.706Z,100394.28
2022-08-03T01:50:07.554Z,100388.91
2022-08-03T01:52:35.792Z,100390.06
2022-08-03T01:55:03.842Z,100394.72
2022-08-03T01:57:30.965Z,100389.50
2022-08-03T01:59:59.850Z,100393.03
2022-08-03T02:02:33.706Z,100391.34
2022-08-03T02:05:01.690Z,100390.47
2022-08-03T02:07:30.351Z,100386.09
2022-08-03T02:09:59.167Z,100387.94
2022-08-03T02:12:27.704Z,100379.16
2022-08-03T02:14:56.094Z,100374.09
2022-08-03T02:17:39.878Z,100373.09
2022-08-03T02:20:11.804Z,100372.09
2022-08-03T02:22:40.641Z,100372.25
2022-08-03T02:25:08.213Z,100367.84
2022-08-03T02:27:39.431Z,100371.69
2022-08-03T02:30:12.113Z,100357.69
2022-08-03T02:32:41.249Z,100362.06
2022-08-03T02:35:14.699Z,100364.88
2022-08-03T02:37:45.139Z,100370.25
2022-08-03T02:40:18.933Z,100371.13
2022-08-03T02:42:47.110Z,100358.66
2022-08-03T02:45:16.804Z,100364.88
2022-08-03T02:47:53.545Z,100357.97
2022-08-03T02:50:24.906Z,100362.50
2022-08-03T02:52:52.694Z,100365.31
2022-08-03T02:55:21.477Z,100360.94
2022-08-03T02:57:49.353Z,100363.63
2022-08-03T03:00:27.105Z,100366.44
2022-08-03T03:02:57.261Z,100361.06
2022-08-03T03:05:56.041Z,100356.69
2022-08-03T03:08:17.701Z,100364.75
2022-08-03T03:10:45.636Z,100356.84
2022-08-03T03:13:13.977Z,100349.75
2022-08-03T03:15:41.737Z,100358.81
2022-08-03T03:18:09.144Z,100354.56
2022-08-03T03:20:38.822Z,100351.03
2022-08-03T03:23:05.940Z,100351.19
2022-08-03T03:25:33.512Z,100353.03
2022-08-03T03:28:01.088Z,100347.78
2022-08-03T03:30:29.706Z,100349.50
2022-08-03T03:32:57.307Z,100351.47
2022-08-03T03:35:24.038Z,100332.63
2022-08-03T03:37:52.024Z,100341.72
2022-08-03T03:40:18.670Z,100337.31
2022-08-03T03:42:45.342Z,100343.84
2022-08-03T03:45:12.954Z,100336.75
2022-08-03T03:47:39.527Z,100340.44
2022-08-03T03:50:06.752Z,100337.91
2022-08-03T03:52:33.946Z,100329.97
2022-08-03T03:55:01.917Z,100328.94
2022-08-03T03:57:28.960Z,100332.63
2022-08-03T03:59:55.412Z,100323.72
2022-08-03T04:02:21.913Z,100322.88
2022-08-03T04:04:48.364Z,100321.19
2022-08-03T04:07:14.827Z,100320.31
2022-08-03T04:09:42.793Z,100330.22
2022-08-03T04:12:10.695Z,100329.41
2022-08-03T04:14:39.172Z,100330.22
2022-08-03T04:17:09.186Z,100334.94
2022-08-03T04:19:38.381Z,100328.84
2022-08-03T04:22:07.160Z,100330.53
2022-08-03T04:24:39.341Z,100331.53
2022-08-03T04:27:09.080Z,100332.53
2022-08-03T04:29:48.122Z,100328.16
2022-08-03T04:32:16.848Z,100327.28
2022-08-03T04:34:43.998Z,100325.44
2022-08-03T04:37:12.305Z,100330.94
2022-08-03T04:39:41.906Z,100331.94
2022-08-03T04:42:12.575Z,100331.06
2022-08-03T04:44:44.090Z,100328.41
2022-08-03T04:47:10.554Z,100325.81
2022-08-03T04:49:37.754Z,100325.13
2022-08-03T04:52:05.226Z,100333.06
2022-08-03T04:54:39.810Z,100327.94
2022-08-03T04:57:06.286Z,100329.66
2022-08-03T04:59:32.783Z,100331.63
2022-08-03T05:02:00.541Z,100332.63
2022-08-03T05:04:27.119Z,100329.94
2022-08-03T05:06:55.176Z,100329.78
2022-08-03T05:09:33.487Z,100335.31
2022-08-03T05:12:09.196Z,100334.47
2022-08-03T05:14:36.772Z,100329.22
2022-08-03T05:17:04.547Z,100330.22
2022-08-03T05:19:31.055Z,100333.03
2022-08-03T05:21:57.705Z,100338.28
2022-08-03T05:24:24.145Z,100337.28
2022-08-03T05:26:50.726Z,100335.59
2022-08-03T05:29:17.203Z,100339.13
2022-08-03T05:31:43.726Z,100340.25
2022-08-03T05:34:11.508Z,100341.97
2022-08-03T05:36:37.955Z,100347.19
2022-08-03T05:39:04.432Z,100346.34
2022-08-03T05:41:36.797Z,100340.13
2022-08-03T05:44:04.738Z,100343.66
2022-08-03T05:46:31.502Z,100345.50
2022-08-03T05:48:58.052Z,100356.38
2022-08-03T05:51:25.830Z,100359.06
2022-08-03T05:53:52.355Z,100349.16
2022-08-03T05:56:22.405Z,100354.41
2022-08-03T05:58:48.958Z,100333.91
2022-08-03T06:01:16.117Z,100348.03
2022-08-03T06:03:42.784Z,100347.19
2022-08-03T06:06:09.346Z,100347.19
2022-08-03T06:08:37.162Z,100358.69
2022-08-03T06:11:03.613Z,100355.97
2022-08-03T06:13:30.203Z,100356.84
2022-08-03T06:15:56.635Z,100353.16
2022-08-03T06:18:23.215Z,100363.91
2022-08-03T06:20:50.352Z,100361.22
2022-08-03T06:23:19.208Z,100367.31
2022-08-03T06:25:47.497Z,100358.25
2022-08-03T06:31:01.756Z,100362.63
2022-08-03T06:34:30.968Z,100357.13
2022-08-03T06:36:14.759Z,100362.34
2022-08-03T06:38:41.222Z,100356.97
2022-08-03T06:41:09.035Z,100352.34
2022-08-03T06:43:35.869Z,100351.47
2022-08-03T06:46:02.650Z,100354.88
2022-08-03T06:48:29.220Z,100353.03
2022-08-03T06:50:55.730Z,100354.72
2022-08-03T06:53:22.478Z,100350.34
2022-08-03T06:55:53.931Z,100352.03
2022-08-03T06:58:22.413Z,100347.53
2022-08-03T07:00:49.145Z,100344.69
2022-08-03T07:03:15.783Z,100351.75
2022-08-03T07:05:42.577Z,100347.22
2022-08-03T07:08:09.262Z,100338.19
2022-08-03T07:10:35.738Z,100349.78
2022-08-03T07:13:02.233Z,100346.09
2022-08-03T07:15:55.490Z,100341.72
2022-08-03T07:18:16.533Z,100337.19
2022-08-03T07:20:43.101Z,100335.22
2022-08-03T07:23:09.744Z,100337.91
2022-08-03T07:25:38.440Z,100341.28
2022-08-03T07:28:04.997Z,100340.44
2022-08-03T07:30:32.744Z,100338.47
2022-08-03T07:32:59.219Z,100340.16
2022-08-03T07:35:25.835Z,100333.75
2022-08-03T07:37:54.900Z,100333.63
2022-08-03T07:40:22.309Z,100330.09
2022-08-03T07:42:53.221Z,100338.03
2022-08-03T07:45:20.084Z,100332.47
2022-08-03T07:47:53.619Z,100335.88
2022-08-03T07:50:21.215Z,100330.50
2022-08-03T07:52:47.909Z,100330.50
2022-08-03T07:55:14.549Z,100324.13
2022-08-03T07:57:40.984Z,100332.06
2022-08-03T08:00:13.538Z,100331.91
2022-08-03T08:02:40.016Z,100330.06
2022-08-03T08:05:08.589Z,100332.63
2022-08-03T08:07:35.161Z,100330.78
2022-08-03T08:10:01.640Z,100320.88
2022-08-03T08:12:28.320Z,100321.59
2022-08-03T08:14:54.779Z,100320.59
2022-08-03T08:17:21.268Z,100323.13
2022-08-03T08:19:51.314Z,100318.59
2022-08-03T08:22:29.718Z,100323.00
2022-08-03T08:24:57.593Z,100316.59
2022-08-03T08:27:24.057Z,100315.59
2022-08-03T08:29:54.313Z,100314.75
2022-08-03T08:32:24.080Z,100306.41
2022-08-03T08:34:50.553Z,100308.09
2022-08-03T08:37:16.992Z,100296.50
2022-08-03T08:39:44.900Z,100307.97
2022-08-03T08:42:11.498Z,100288.28
2022-08-03T08:44:37.950Z,100290.13
2022-08-03T08:47:04.567Z,100298.03
2022-08-03T08:49:35.178Z,100285.44
2022-08-03T08:52:29.553Z,100297.59
2022-08-03T08:54:56.595Z,100300.00
2022-08-03T08:57:42.235Z,100296.47
2022-08-03T09:00:11.733Z,100303.53
2022-08-03T09:02:38.174Z,100304.25
2022-08-03T09:05:07.533Z,100302.41
2022-08-03T09:07:34.804Z,100305.09
2022-08-03T09:10:11.294Z,100309.34
2022-08-03T09:12:42.925Z,100303.81
2022-08-03T09:15:18.521Z,100307.34
2022-08-03T09:17:50.371Z,100304.66
2022-08-03T09:20:18.568Z,100309.06
2022-08-03T09:22:54.561Z,100308.06
2022-08-03T09:25:29.900Z,100308.91
2022-08-03T09:28:05.974Z,100299.81
2022-08-03T09:30:34.641Z,100298.97
2022-08-03T09:33:02.749Z,100310.28
2022-08-03T09:35:53.713Z,100306.59
2022-08-03T09:38:18.056Z,100305.63
2022-08-03T09:40:46.599Z,100306.31
2022-08-03T09:43:13.651Z,100304.47
2022-08-03T09:45:40.739Z,100306.00
2022-08-03T09:48:21.006Z,100305.16
2022-08-03T09:50:58.449Z,100306.00
2022-08-03T09:53:26.478Z,100298.78
2022-08-03T09:56:33.318Z,100305.03
2022-08-03T09:58:46.168Z,100304.72
2022-08-03T10:01:24.093Z,100310.97
2022-08-03T10:04:04.463Z,100304.41
2022-08-03T10:06:31.703Z,100297.22
2022-08-03T10:09:07.774Z,100300.78
2022-08-03T10:11:41.280Z,100299.78
2022-08-03T10:14:09.887Z,100301.47
2022-08-03T10:16:37.776Z,100305.84
2022-08-03T10:19:05.589Z,100295.63
2022-08-03T10:21:34.984Z,100300.88
2022-08-03T10:24:04.441Z,100297.19
2022-08-03T10:26:33.068Z,100298.03
2022-08-03T10:29:04.130Z,100294.50
2022-08-03T10:31:54.397Z,100293.47
2022-08-03T10:34:26.376Z,100304.25
2022-08-03T10:36:58.570Z,100295.34
2022-08-03T10:39:29.344Z,100296.03
2022-08-03T10:41:57.832Z,100283.44
2022-08-03T10:44:32.414Z,100285.13
2022-08-03T10:46:59.388Z,100286.84
2022-08-03T10:49:33.965Z,100288.50
2022-08-03T10:52:02.632Z,100282.84
2022-08-03T10:54:42.600Z,100279.13
2022-08-03T10:57:58.436Z,100272.91
2022-08-03T11:00:27.849Z,100282.66
2022-08-03T11:03:04.325Z,100274.47
2022-08-03T11:05:32.836Z,100265.38
2022-08-03T11:08:18.180Z,100268.91
2022-08-03T11:10:44.930Z,100274.16
2022-08-03T11:13:14.908Z,100267.06
2022-08-03T11:15:47.052Z,100261.00
2022-08-03T11:18:14.706Z,100261.13
2022-08-03T11:20:47.638Z,100260.00
2022-08-03T11:23:15.287Z,100250.91
2022-08-03T11:26:09.999Z,100252.63
2022-08-03T11:28:37.580Z,100256.84
2022-08-03T11:31:49.177Z,100250.31
2022-08-03T11:34:17.422Z,100255.00
2022-08-03T11:37:09.994Z,100254.00
2022-08-03T11:39:40.337Z,100250.31
2022-08-03T11:42:36.464Z,100255.69
2022-08-03T11:45:08.430Z,100246.59
2022-08-03T11:47:51.008Z,100251.56
2022-08-03T11:50:19.452Z,100247.00
2022-08-03T11:52:45.952Z,100240.78
2022-08-03T11:55:15.134Z,100239.25
2022-08-03T11:59:01.901Z,100247.16
2022-08-03T12:00:30.547Z,100237.38
2022-08-03T12:03:00.390Z,100241.75
2022-08-03T12:05:39.669Z,100241.75
2022-08-03T12:08:07.672Z,100239.91
2022-08-03T12:10:35.311Z,100241.47
2022-08-03T12:13:03.914Z,100240.31
2022-08-03T12:15:32.238Z,100241.00
2022-08-03T12:17:58.770Z,100231.78
2022-08-03T12:20:34.689Z,100233.78
2022-08-03T12:23:04.872Z,100240.31
2022-08-03T12:25:39.223Z,100231.41
2022-08-03T12:28:36.278Z,100234.22
2022-08-03T12:31:00.328Z,100234.22
2022-08-03T12:33:27.976Z,100237.47
2022-08-03T12:36:10.261Z,100228.25
2022-08-03T12:38:39.710Z,100228.41
2022-08-03T12:41:08.101Z,100229.78
2022-08-03T12:43:37.633Z,100225.78
2022-08-03T12:46:10.874Z,100230.16
2022-08-03T12:48:54.318Z,100223.09
2022-08-03T12:51:20.907Z,100228.47
2022-08-03T12:53:53.586Z,100228.84
2022-08-03T12:56:20.149Z,100220.63
2022-08-03T12:58:46.891Z,100219.78
2022-08-03T13:01:14.011Z,100221.78
2022-08-03T13:03:43.396Z,100227.03
2022-08-03T13:06:12.934Z,100212.38
2022-08-03T13:08:39.795Z,100214.94
2022-08-03T13:11:23.299Z,100212.91
2022-08-03T13:14:09.700Z,100208.38
2022-08-03T13:16:43.221Z,100213.09
2022-08-03T13:19:09.945Z,100213.09
2022-08-03T13:21:53.424Z,100217.00
2022-08-03T13:24:29.712Z,100210.63
2022-08-03T13:26:58.308Z,100211.28
2022-08-03T13:29:24.764Z,100212.84
2022-08-03T13:31:51.587Z,100208.16
2022-08-03T13:34:22.516Z,100210.69
2022-08-03T13:39:57.973Z,100206.31
2022-08-03T13:42:24.281Z,100198.03
2022-08-03T13:44:50.844Z,100201.06
2022-08-03T13:47:17.673Z,100197.50
2022-08-03T13:49:59.554Z,100198.53
2022-08-03T13:52:29.288Z,100195.13
2022-08-03T13:54:55.789Z,100193.59
2022-08-03T13:58:03.181Z,100200.69
2022-08-03T14:00:10.980Z,100187.03
2022-08-03T14:02:38.437Z,100186.91
2022-08-03T14:05:05.609Z,100186.06
2022-08-03T14:07:32.089Z,100182.34
2022-08-03T14:09:58.597Z,100185.06
2022-08-03T14:12:26.377Z,100184.34
2022-08-03T14:14:52.928Z,100184.88
2022-08-03T14:17:20.123Z,100184.75
2022-08-03T14:19:53.229Z,100185.75
2022-08-03T14:22:21.258Z,100172.28
2022-08-03T14:24:48.024Z,100171.56
2022-08-03T14:27:15.993Z,100168.34
2022-08-03T14:29:43.809Z,100176.25
2022-08-03T14:32:13.226Z,100169.06
2022-08-03T14:34:40.096Z,100165.19
2022-08-03T14:37:06.694Z,100159.97
2022-08-03T14:42:19.635Z,100172.72
2022-08-03T14:44:47.486Z,100159.97
2022-08-03T14:47:14.328Z,100152.72
2022-08-03T14:50:37.186Z,100155.59
2022-08-03T14:52:27.732Z,100162.47
2022-08-03T14:54:54.191Z,100159.38
2022-08-03T14:57:20.899Z,100160.22
2022-08-03T14:59:55.581Z,100152.22
2022-08-03T15:02:24.457Z,100152.22
2022-08-03T15:04:51.153Z,100143.47
2022-08-03T15:07:17.942Z,100152.13
2022-08-03T15:09:44.583Z,100141.72
2022-08-03T15:12:11.042Z,100154.88
2022-08-03T15:14:37.882Z,100144.78
2022-08-03T15:17:06.034Z,100137.22
2022-08-03T15:20:01.596Z,100136.38
2022-08-03T15:22:20.781Z,100138.69
2022-08-03T15:24:52.299Z,100136.84
2022-08-03T15:27:19.176Z,100134.84
2022-08-03T15:30:07.688Z,100132.81
2022-08-03T15:32:33.817Z,100140.47
2022-08-03T15:35:00.455Z,100139.13
2022-08-03T15:37:27.790Z,100133.56
2022-08-03T15:39:59.486Z,100136.25
2022-08-03T15:42:28.366Z,100134.25
2022-08-03T15:44:54.897Z,100133.13
2022-08-03T15:47:22.915Z,100137.31
2022-08-03T15:49:50.850Z,100138.00
2022-08-03T15:52:17.363Z,100132.44
2022-08-03T15:54:43.926Z,100138.69
2022-08-03T15:57:10.399Z,100131.47
2022-08-03T15:59:36.886Z,100136.00
2022-08-03T16:02:03.986Z,100134.16
2022-08-03T16:04:30.606Z,100135.00
2022-08-03T16:06:58.376Z,100132.00
2022-08-03T16:09:42.476Z,100134.50
2022-08-03T16:12:14.404Z,100126.25
2022-08-03T16:14:51.762Z,100127.78
2022-08-03T16:17:19.900Z,100136.56
2022-08-03T16:19:46.662Z,100137.41
2022-08-03T16:22:14.712Z,100136.25
2022-08-03T16:24:41.203Z,100136.25
2022-08-03T16:27:17.484Z,100138.97
2022-08-03T16:29:54.507Z,100133.72
2022-08-03T16:32:21.000Z,100150.72
2022-08-03T16:34:47.476Z,100134.53
2022-08-03T16:37:37.479Z,100140.81
2022-08-03T16:40:01.889Z,100147.72
2022-08-03T16:42:28.342Z,100146.56
2022-08-03T16:44:55.056Z,100150.78
2022-08-03T16:47:22.207Z,100143.53
2022-08-03T16:49:54.065Z,100152.31
2022-08-03T16:52:26.119Z,100158.56
2022-08-03T16:54:53.911Z,100151.31
2022-08-03T16:57:55.737Z,100148.63
2022-08-03T17:00:09.451Z,100153.16
2022-08-03T17:02:36.154Z,100152.31
2022-08-03T17:05:03.183Z,100154.00
2022-08-03T17:07:31.472Z,100163.78
2022-08-03T17:09:58.313Z,100155.00
2022-08-03T17:12:26.840Z,100163.56
2022-08-03T17:14:54.146Z,100166.97
2022-08-03T17:17:27.460Z,100163.44
2022-08-03T17:19:56.141Z,100162.75
2022-08-03T17:22:31.492Z,100164.28
2022-08-03T17:25:07.424Z,100167.66
2022-08-03T17:28:48.254Z,100171.88
2022-08-03T17:30:22.424Z,100164.63
2022-08-03T17:32:56.717Z,100174.41
2022-08-03T17:35:24.777Z,100175.28
2022-08-03T17:38:03.712Z,100176.13
2022-08-03T17:40:32.463Z,100175.09
2022-08-03T17:43:01.951Z,100176.97
2022-08-03T17:45:52.807Z,100171.56
2022-08-03T17:48:21.546Z,100163.47
2022-08-03T17:50:55.367Z,100165.16
2022-08-03T17:53:27.580Z,100167.19
2022-08-03T17:56:44.595Z,100170.88
2022-08-03T17:59:09.498Z,100176.25
2022-08-03T18:02:00.753Z,100170.88
2022-08-03T18:04:33.506Z,100177.44
2022-08-03T18:07:11.131Z,100176.75
2022-08-03T18:10:03.838Z,100181.13
2022-08-03T18:12:29.034Z,100174.88
2022-08-03T18:15:01.239Z,100180.47
2022-08-03T18:17:55.552Z,100186.00
2022-08-03T18:20:32.890Z,100178.09
2022-08-03T18:23:08.756Z,100185.34
2022-08-03T18:25:43.041Z,100177.38
2022-08-03T18:28:15.515Z,100170.31
2022-08-03T18:30:54.050Z,100180.25
2022-08-03T18:34:18.322Z,100178.56
2022-08-03T18:36:09.764Z,100183.78
2022-08-03T18:38:39.167Z,100178.56
2022-08-03T18:41:14.563Z,100187.50
2022-08-03T18:43:47.249Z,100184.81
2022-08-03T18:46:42.019Z,100187.50
2022-08-03T18:49:11.792Z,100191.03
2022-08-03T18:51:43.187Z,100188.50
2022-08-03T18:54:46.110Z,100197.59
2022-08-03T18:57:10.065Z,100201.13
2022-08-03T18:59:46.293Z,100193.88
2022-08-03T19:02:28.966Z,100201.13
2022-08-03T19:05:03.339Z,100201.13
2022-08-03T19:07:35.943Z,100202.97
2022-08-03T19:10:06.058Z,100211.91
2022-08-03T19:12:39.870Z,100207.53
2022-08-03T19:15:10.366Z,100211.06
2022-08-03T19:17:43.326Z,100207.69
2022-08-03T19:20:20.172Z,100213.06
2022-08-03T19:22:47.319Z,100212.22
2022-08-03T19:25:13.893Z,100220.31
2022-08-03T19:27:43.830Z,100216.13
2022-08-03T19:30:20.105Z,100216.13
2022-08-03T19:32:54.264Z,100214.41
2022-08-03T19:35:51.186Z,100216.44
2022-08-03T19:38:09.157Z,100217.41
2022-08-03T19:40:42.004Z,100221.13
2022-08-03T19:43:11.450Z,100221.28
2022-08-03T19:46:06.323Z,100226.69
2022-08-03T19:48:34.712Z,100225.84
2022-08-03T19:51:02.963Z,100234.06
2022-08-03T19:53:44.949Z,100236.09
2022-08-03T19:56:12.903Z,100229.81
2022-08-03T19:58:42.615Z,100232.69
2022-08-03T20:01:19.489Z,100239.94
2022-08-03T20:03:49.189Z,100234.69
2022-08-03T20:06:16.931Z,100232.88
2022-08-03T20:08:44.497Z,100237.56
2022-08-03T20:11:11.114Z,100237.56
2022-08-03T20:13:39.139Z,100239.53
2022-08-03T20:16:06.179Z,100241.41
2022-08-03T20:18:39.413Z,100248.66
2022-08-03T20:21:15.350Z,100246.97
2022-08-03T20:24:03.212Z,100247.97
2022-08-03T20:26:30.567Z,100250.66
2022-08-03T20:29:01.207Z,100250.97
2022-08-03T20:31:36.368Z,100261.75
2022-08-03T20:34:05.388Z,100259.19
2022-08-03T20:36:31.973Z,100262.91
2022-08-03T20:38:58.907Z,100269.31
2022-08-03T20:41:26.250Z,100265.75
2022-08-03T20:43:52.791Z,100263.22
2022-08-03T20:46:33.861Z,100267.91
2022-08-03T20:49:07.639Z,100266.09
2022-08-03T20:54:30.533Z,100263.53
2022-08-03T20:56:58.478Z,100268.25
2022-08-03T20:59:25.069Z,100265.53
2022-08-03T21:01:51.542Z,100272.94
2022-08-03T21:04:22.492Z,100273.94
2022-08-03T21:06:54.093Z,100273.09
2022-08-03T21:09:39.725Z,100269.69
2022-08-03T21:12:15.412Z,100275.25
2022-08-03T21:13:07.586Z,100268.91
2022-08-03T21:14:52.459Z,100266.44
2022-08-03T21:17:38.367Z,100266.59
2022-08-03T21:20:09.352Z,100263.91
2022-08-03T21:22:37.755Z,100265.59
2022-08-03T21:25:07.632Z,100254.94
2022-08-03T21:27:34.839Z,100261.34
2022-08-03T21:30:04.199Z,100257.09
2022-08-03T21:32:32.615Z,100269.59
2022-08-03T21:35:00.571Z,100272.28
2022-08-03T21:37:28.818Z,100264.50
2022-08-03T21:39:56.470Z,100276.13
2022-08-03T21:42:23.287Z,100260.81
2022-08-03T21:44:50.610Z,100265.50
2022-08-03T21:47:18.608Z,100268.50
2022-08-03T21:50:05.660Z,100271.88
2022-08-03T21:52:41.837Z,100270.34
2022-08-03T21:55:09.325Z,100273.03
2022-08-03T21:57:51.007Z,100268.66
2022-08-03T22:00:19.739Z,100274.22
2022-08-03T22:02:54.448Z,100275.19
2022-08-03T22:05:28.111Z,100276.91
2022-08-03T22:07:57.323Z,100275.19
2022-08-03T22:10:23.862Z,100274.50
2022-08-03T22:12:50.335Z,100285.28
2022-08-03T22:15:16.797Z,100279.06
2022-08-03T22:17:54.956Z,100285.41
2022-08-03T22:20:24.011Z,100290.97
2022-08-03T22:22:55.797Z,100286.44
2022-08-03T22:25:28.257Z,100285.75
2022-08-03T22:27:54.970Z,100295.66
2022-08-03T22:30:21.666Z,100299.34
2022-08-03T22:32:52.602Z,100299.34
2022-08-03T22:35:20.708Z,100305.75
2022-08-03T22:37:49.234Z,100302.34
2022-08-03T22:40:16.844Z,100304.19
2022-08-03T22:42:45.940Z,100306.91
2022-08-03T22:45:12.573Z,100313.28
2022-08-03T22:47:59.882Z,100315.13
2022-08-03T22:50:32.002Z,100313.44
2022-08-03T22:53:00.077Z,100314.44
2022-08-03T22:55:27.303Z,100310.06
2022-08-03T22:57:55.577Z,100323.53
2022-08-03T23:00:24.126Z,100324.50
2022-08-03T23:02:51.879Z,100318.25
2022-08-03T23:06:02.319Z,100324.66
2022-08-03T23:08:09.769Z,100322.97
2022-08-03T23:10:38.491Z,100323.94
2022-08-03T23:13:07.120Z,100329.50
2022-08-03T23:15:34.191Z,100333.34
2022-08-03T23:18:00.697Z,100340.56
2022-08-03T23:20:28.896Z,100342.41
2022-08-03T23:22:55.987Z,100342.41
2022-08-03T23:25:22.981Z,100333.50
2022-08-03T23:28:05.511Z,100330.81
2022-08-03T23:30:36.938Z,100331.94
2022-08-03T23:33:04.237Z,100336.47
2022-08-03T23:36:20.133Z,100323.31
2022-08-03T23:38:22.924Z,100320.63
2022-08-03T23:40:51.462Z,100318.94
2022-08-03T23:43:50.831Z,100313.56
2022-08-03T23:46:08.795Z,100313.84
2022-08-03T23:48:35.586Z,100316.69
2022-08-03T23:51:09.534Z,100316.84
2022-08-03T23:53:42.115Z,100317.00
2022-08-03T23:56:16.897Z,100325.19
2022-08-03T23:58:59.271Z,100328.06
